Time;durP1;ratioP1;P1;durP2;ratioP2;P2;SDS_P1;SDS_P2;PMS_P1;PMS_P2;Temp;Humidity;BMP_temperature;BMP_pressure;BME280_temperature;BME280_humidity;BME280_pressure;Samples;Min_cycle;Max_cycle;Signal;HPM_P1;HPM_P2
2021/09/15 00:01:32;;;;;;;10.90;7.65;;;15.00;99.90;15.00;100591.00;;;;4977822;28;111080;-65
2021/09/15 00:03:58;;;;;;;9.27;6.28;;;14.90;99.90;15.00;100586.00;;;;4977900;28;105065;-65
2021/09/15 00:06:24;;;;;;;8.25;6.05;;;15.00;99.90;15.00;100588.00;;;;4978485;28;88916;-66
2021/09/15 00:08:50;;;;;;;11.07;7.03;;;14.90;99.90;15.00;100573.00;;;;4977304;28;116982;-66
2021/09/15 00:11:17;;;;;;;7.63;5.90;;;14.90;99.90;14.90;100569.00;;;;4977297;28;88938;-66
2021/09/15 00:13:43;;;;;;;9.23;6.53;;;14.80;99.90;14.90;100574.00;;;;4977733;28;87692;-66
2021/09/15 00:16:09;;;;;;;12.52;7.30;;;15.30;99.90;14.80;100575.00;;;;4977418;28;102219;-66
2021/09/15 00:18:35;;;;;;;13.53;8.10;;;14.80;99.90;14.80;100573.00;;;;4961260;28;98059;-65
2021/09/15 00:21:01;;;;;;;10.40;7.28;;;14.80;99.90;14.80;100568.00;;;;4983434;28;87792;-65
2021/09/15 00:23:27;;;;;;;9.47;6.43;;;14.70;99.90;14.70;100565.00;;;;4982153;28;87952;-66
2021/09/15 00:25:53;;;;;;;9.50;7.05;;;14.70;99.90;14.70;100550.00;;;;4958269;28;117639;-65
2021/09/15 00:28:18;;;;;;;7.97;6.05;;;14.60;99.90;14.70;100551.00;;;;4959302;28;100162;-66
2021/09/15 00:30:44;;;;;;;7.07;6.15;;;14.60;99.90;14.70;100542.00;;;;4977093;28;109286;-65
2021/09/15 00:33:10;;;;;;;7.07;6.27;;;14.60;99.90;14.70;100544.00;;;;4960797;28;109319;-66
2021/09/15 00:35:36;;;;;;;9.33;6.77;;;14.60;99.90;14.60;100536.00;;;;4977640;28;91356;-69
2021/09/15 00:38:01;;;;;;;6.63;5.90;;;14.60;99.90;14.60;100533.00;;;;4958687;28;92244;-67
2021/09/15 00:40:27;;;;;;;11.70;6.97;;;14.60;99.90;14.60;100538.00;;;;4976738;28;111673;-65
2021/09/15 00:42:53;;;;;;;8.00;5.93;;;14.50;99.90;14.60;100548.00;;;;4977420;28;87710;-67
2021/09/15 00:45:19;;;;;;;9.03;6.40;;;14.50;99.90;14.60;100545.00;;;;4976678;28;116718;-65
2021/09/15 00:47:45;;;;;;;7.87;6.60;;;14.50;99.90;14.50;100546.00;;;;4977521;28;88739;-67
2021/09/15 00:50:11;;;;;;;14.00;7.87;;;14.50;99.90;14.50;100544.00;;;;4977664;28;87677;-67
2021/09/15 00:52:37;;;;;;;8.40;6.60;;;14.50;99.90;14.50;100548.00;;;;4969614;28;87628;-65
2021/09/15 00:55:03;;;;;;;12.25;6.90;;;14.40;99.90;14.50;100556.00;;;;4969219;28;107956;-66
2021/09/15 00:57:29;;;;;;;7.50;6.67;;;14.40;99.90;14.50;100551.00;;;;4977100;28;100579;-65
2021/09/15 00:59:55;;;;;;;8.70;7.10;;;14.40;99.90;14.50;100549.00;;;;4976214;28;111755;-65
2021/09/15 01:02:20;;;;;;;7.17;6.17;;;14.40;99.90;14.40;100544.00;;;;4976451;28;107368;-64
2021/09/15 01:04:46;;;;;;;10.20;6.70;;;14.40;99.90;14.40;100538.00;;;;4976297;28;116594;-65
2021/09/15 01:07:13;;;;;;;9.20;7.20;;;14.30;99.90;14.40;100549.00;;;;4976604;28;117303;-65
2021/09/15 01:09:39;;;;;;;8.63;6.00;;;14.30;99.90;14.40;100548.00;;;;4959040;28;87858;-65
2021/09/15 01:12:09;;;;;;;7.90;6.60;;;14.30;99.90;14.30;100544.00;;;;4958129;28;109131;-66
2021/09/15 01:14:38;;;;;;;8.73;6.70;;;14.30;99.90;14.30;100543.00;;;;4975244;28;88045;-66
2021/09/15 01:17:04;;;;;;;9.93;7.63;;;14.20;99.90;14.30;100540.00;;;;4977677;28;87897;-66
2021/09/15 01:19:30;;;;;;;9.50;6.67;;;14.20;99.90;14.30;100543.00;;;;4977660;28;88018;-66
2021/09/15 01:22:00;;;;;;;9.03;7.37;;;14.20;99.90;14.20;100544.00;;;;4976373;28;108239;-66
2021/09/15 01:24:29;;;;;;;11.03;7.60;;;14.20;99.90;14.20;100548.00;;;;4956916;28;99401;-65
2021/09/15 01:26:56;;;;;;;10.00;7.33;;;14.20;99.90;14.20;100543.00;;;;4976263;28;88417;-65
2021/09/15 01:29:29;;;;;;;8.20;6.73;;;14.10;99.90;14.20;100542.00;;;;4976759;28;88006;-65
2021/09/15 01:32:06;;;;;;;7.47;6.63;;;14.10;99.90;14.20;100544.00;;;;4977389;28;87766;-65
2021/09/15 01:34:36;;;;;;;7.60;6.73;;;14.10;99.90;14.10;100537.00;;;;4958685;28;87742;-67
2021/09/15 01:37:03;;;;;;;9.20;6.03;;;14.10;99.90;14.10;100541.00;;;;4977206;28;87794;-67
2021/09/15 01:39:29;;;;;;;8.53;7.17;;;14.10;99.90;14.10;100535.00;;;;4977187;28;87981;-67
2021/09/15 01:42:00;;;;;;;7.97;6.60;;;14.10;99.90;14.10;100536.00;;;;4976837;28;93535;-66
2021/09/15 01:44:46;;;;;;;9.53;7.77;;;14.10;99.90;14.10;100518.00;;;;4975748;28;102461;-66
2021/09/15 01:47:14;;;;;;;12.77;6.67;;;14.20;99.90;14.10;100524.00;;;;4975963;28;115389;-67
2021/09/15 01:49:41;;;;;;;11.70;7.17;;;14.00;99.90;14.10;100517.00;;;;4976427;28;88952;-66
2021/09/15 01:52:10;;;;;;;8.03;6.50;;;14.00;99.90;14.10;100518.00;;;;4977426;28;87678;-67
2021/09/15 01:54:36;;;;;;;8.83;7.20;;;14.00;99.90;14.10;100520.00;;;;4976542;28;88253;-67
2021/09/15 01:57:03;;;;;;;7.27;5.47;;;14.00;99.90;14.10;100519.00;;;;4976880;28;87677;-66
2021/09/15 01:59:28;;;;;;;8.90;6.70;;;14.10;99.90;14.10;100505.00;;;;4976875;28;87547;-67
2021/09/15 02:01:54;;;;;;;10.07;6.20;;;14.10;99.90;14.10;100501.00;;;;4975964;28;109646;-66
2021/09/15 02:04:20;;;;;;;8.83;6.73;;;14.10;99.90;14.10;100497.00;;;;4975550;28;117811;-66
2021/09/15 02:06:46;;;;;;;10.13;7.07;;;14.00;99.90;14.20;100495.00;;;;4976144;28;107241;-66
2021/09/15 02:09:12;;;;;;;10.00;7.90;;;14.10;99.90;14.20;100512.00;;;;4974750;28;111324;-66
2021/09/15 02:11:38;;;;;;;9.73;6.90;;;14.10;99.90;14.20;100504.00;;;;4975569;28;107661;-66
2021/09/15 02:14:05;;;;;;;11.93;6.67;;;14.10;99.90;14.20;100501.00;;;;4975509;28;89939;-66
2021/09/15 02:16:31;;;;;;;10.03;6.60;;;14.10;99.90;14.20;100504.00;;;;4976393;28;89405;-66
2021/09/15 02:18:56;;;;;;;12.03;6.03;;;14.10;99.90;14.20;100496.00;;;;4976810;28;87700;-66
2021/09/15 02:21:22;;;;;;;7.13;5.60;;;14.10;99.90;14.20;100501.00;;;;4976341;28;91595;-66
2021/09/15 02:23:48;;;;;;;8.73;6.87;;;14.10;99.90;14.20;100491.00;;;;4974574;28;118236;-66
2021/09/15 02:26:15;;;;;;;8.40;7.00;;;14.10;99.90;14.10;100492.00;;;;4975813;28;117642;-66
2021/09/15 02:28:41;;;;;;;8.90;7.33;;;14.10;99.90;14.20;100493.00;;;;4957587;28;87762;-66
2021/09/15 02:31:07;;;;;;;9.23;7.30;;;14.10;99.90;14.20;100488.00;;;;4977455;28;87097;-67
2021/09/15 02:33:33;;;;;;;8.87;6.60;;;14.10;99.90;14.20;100487.00;;;;4959135;28;88160;-66
2021/09/15 02:35:59;;;;;;;9.70;6.23;;;14.10;99.90;14.20;100484.00;;;;4976413;28;95178;-66
2021/09/15 02:38:25;;;;;;;12.33;7.73;;;14.10;99.90;14.20;100487.00;;;;4977187;28;88854;-66
2021/09/15 02:40:51;;;;;;;8.70;7.07;;;14.10;99.90;14.20;100487.00;;;;4982885;28;90172;-65
2021/09/15 02:43:17;;;;;;;10.00;6.67;;;14.10;99.90;14.20;100484.00;;;;4982405;28;88219;-65
2021/09/15 02:45:43;;;;;;;7.63;5.40;;;14.10;99.90;14.20;100495.00;;;;4981910;28;112673;-65
2021/09/15 02:48:08;;;;;;;9.17;6.70;;;14.10;99.90;14.20;100482.00;;;;4981638;28;110687;-67
2021/09/15 02:50:34;;;;;;;10.03;7.17;;;14.50;99.90;14.30;100476.00;;;;4981866;28;109826;-65
2021/09/15 02:53:00;;;;;;;9.23;6.50;;;14.20;99.90;14.30;100482.00;;;;4981920;28;102009;-65
2021/09/15 02:55:26;;;;;;;7.00;6.30;;;14.20;99.90;14.30;100482.00;;;;4981721;28;118111;-67
2021/09/15 02:57:52;;;;;;;16.23;7.80;;;14.20;99.90;14.30;100477.00;;;;4982471;28;87871;-65
2021/09/15 03:00:18;;;;;;;7.83;5.97;;;14.30;99.90;14.40;100478.00;;;;4982848;28;87783;-65
2021/09/15 03:02:44;;;;;;;9.10;6.60;;;14.30;99.90;14.40;100479.00;;;;4981257;28;89967;-65
2021/09/15 03:05:10;;;;;;;7.87;6.40;;;14.30;99.90;14.40;100474.00;;;;4982883;28;101540;-65
2021/09/15 03:07:36;;;;;;;7.47;6.07;;;14.60;99.90;14.40;100473.00;;;;4982296;28;87864;-65
2021/09/15 03:10:05;;;;;;;9.03;6.63;;;14.30;99.90;14.40;100476.00;;;;4982903;28;87762;-65
2021/09/15 03:12:30;;;;;;;8.57;6.70;;;14.40;99.90;14.40;100468.00;;;;4975643;28;100230;-65
2021/09/15 03:14:56;;;;;;;9.50;6.50;;;14.40;99.90;14.40;100466.00;;;;4955717;28;93185;-65
2021/09/15 03:17:22;;;;;;;8.03;6.50;;;14.30;99.90;14.40;100465.00;;;;4979987;28;110694;-65
2021/09/15 03:19:47;;;;;;;9.63;6.10;;;14.30;99.90;14.40;100465.00;;;;4981893;28;107537;-65
2021/09/15 03:22:13;;;;;;;7.53;5.97;;;14.30;99.90;14.40;100469.00;;;;4980790;28;118791;-65
2021/09/15 03:24:39;;;;;;;7.90;6.33;;;14.40;99.90;14.40;100466.00;;;;4981377;28;103274;-65
2021/09/15 03:27:05;;;;;;;7.93;6.20;;;14.40;99.90;14.40;100462.00;;;;4982098;28;88738;-65
2021/09/15 03:29:32;;;;;;;11.27;6.63;;;14.40;99.90;14.50;100459.00;;;;4982116;28;87749;-65
2021/09/15 03:31:59;;;;;;;6.90;5.93;;;14.40;99.90;14.50;100461.00;;;;4981936;28;88706;-65
2021/09/15 03:34:24;;;;;;;6.67;5.77;;;14.30;99.90;14.50;100456.00;;;;4981713;28;88814;-65
2021/09/15 03:36:51;;;;;;;8.70;5.83;;;14.40;99.90;14.50;100455.00;;;;4982027;28;109207;-65
2021/09/15 03:39:17;;;;;;;7.73;6.87;;;14.40;99.90;14.50;100453.00;;;;4981404;28;91153;-65
2021/09/15 03:41:43;;;;;;;8.43;6.30;;;14.40;99.90;14.50;100453.00;;;;4981944;28;95298;-66
2021/09/15 03:44:09;;;;;;;9.03;6.20;;;14.40;99.90;14.50;100447.00;;;;4981178;28;116430;-66
2021/09/15 03:46:34;;;;;;;8.67;6.33;;;14.30;99.90;14.50;100444.00;;;;4962502;28;110057;-65
2021/09/15 03:49:00;;;;;;;6.70;5.77;;;14.40;99.90;14.50;100445.00;;;;4987887;28;101958;-65
2021/09/15 03:51:26;;;;;;;8.13;6.70;;;14.40;99.90;14.50;100443.00;;;;4978725;28;117357;-66
2021/09/15 03:53:52;;;;;;;13.23;6.20;;;14.40;99.90;14.40;100434.00;;;;4977141;28;112368;-66
2021/09/15 03:56:18;;;;;;;6.97;5.75;;;14.40;99.90;14.40;100437.00;;;;4978065;28;109199;-65
2021/09/15 03:58:44;;;;;;;9.60;6.30;;;14.30;99.90;14.40;100442.00;;;;4978628;28;87875;-65
2021/09/15 04:01:10;;;;;;;7.87;6.30;;;14.30;99.90;14.40;100440.00;;;;4977397;28;118184;-65
2021/09/15 04:03:37;;;;;;;10.60;6.67;;;14.40;99.90;14.40;100433.00;;;;4978078;28;88376;-65
2021/09/15 04:06:03;;;;;;;10.00;6.67;;;14.30;99.90;14.40;100434.00;;;;4960065;28;87962;-65
2021/09/15 04:08:29;;;;;;;7.30;6.17;;;14.30;99.90;14.40;100425.00;;;;4979177;28;87256;-65
2021/09/15 04:10:55;;;;;;;7.67;6.23;;;14.30;99.90;14.30;100427.00;;;;4978115;28;88376;-66
2021/09/15 04:13:21;;;;;;;12.60;5.80;;;14.30;99.90;14.30;100425.00;;;;4977389;28;90510;-65
2021/09/15 04:15:47;;;;;;;8.23;5.33;;;14.30;99.90;14.30;100423.00;;;;4977187;28;110046;-65
2021/09/15 04:18:13;;;;;;;7.60;6.63;;;14.20;99.90;14.30;100421.00;;;;4976986;28;108301;-65
2021/09/15 04:20:40;;;;;;;9.03;7.03;;;14.20;99.90;14.30;100421.00;;;;4978826;28;88163;-66
2021/09/15 04:23:13;;;;;;;9.33;6.80;;;14.20;99.90;14.30;100421.00;;;;4969778;28;88682;-66
2021/09/15 04:31:25;;;;;;;8.33;6.47;;;14.20;99.90;14.30;100429.00;;;;4958032;28;88202;-65
2021/09/15 04:33:53;;;;;;;9.67;7.13;;;14.20;99.90;14.30;100434.00;;;;4967411;28;87573;-65
2021/09/15 04:36:19;;;;;;;6.83;5.80;;;14.20;99.90;14.30;100433.00;;;;4978228;28;87817;-65
2021/09/15 04:38:45;;;;;;;6.27;5.67;;;14.20;99.90;14.30;100422.00;;;;4959622;28;87894;-65
2021/09/15 04:41:12;;;;;;;11.67;7.10;;;14.20;99.90;14.30;100434.00;;;;4976854;28;89323;-66
2021/09/15 04:43:37;;;;;;;8.93;6.90;;;14.20;99.90;14.30;100420.00;;;;4977381;28;89857;-65
2021/09/15 04:46:03;;;;;;;8.03;6.50;;;14.20;99.90;14.40;100421.00;;;;4977671;28;110764;-65
2021/09/15 04:48:29;;;;;;;7.93;6.63;;;14.30;99.90;14.40;100422.00;;;;4958981;28;90915;-65
2021/09/15 04:50:55;;;;;;;8.23;5.93;;;14.30;99.90;14.50;100414.00;;;;4976552;28;116101;-65
2021/09/15 04:53:21;;;;;;;9.67;6.47;;;14.30;99.90;14.50;100411.00;;;;4960156;28;118609;-67
2021/09/15 04:55:47;;;;;;;9.60;6.65;;;14.40;99.90;14.50;100422.00;;;;4977366;28;87773;-65
2021/09/15 04:58:13;;;;;;;9.13;6.40;;;14.40;99.90;14.60;100406.00;;;;4977506;28;88902;-65
2021/09/15 05:00:39;;;;;;;8.70;7.03;;;14.50;99.90;14.60;100406.00;;;;4977204;28;97816;-65
2021/09/15 05:03:04;;;;;;;7.63;5.90;;;14.50;99.90;14.70;100403.00;;;;4976388;28;117604;-65
2021/09/15 05:05:30;;;;;;;9.20;6.17;;;14.50;99.90;14.70;100405.00;;;;4976397;28;108962;-65
2021/09/15 05:07:56;;;;;;;6.93;5.57;;;14.60;99.90;14.80;100395.00;;;;4977648;28;87721;-65
2021/09/15 05:10:24;;;;;;;9.03;6.77;;;14.70;99.90;14.80;100402.00;;;;4976148;28;117624;-66
2021/09/15 05:12:55;;;;;;;7.50;6.73;;;14.70;99.90;14.90;100405.00;;;;4976994;28;87879;-65
2021/09/15 05:15:21;;;;;;;10.25;6.90;;;14.80;99.90;14.90;100407.00;;;;4977686;28;87693;-65
2021/09/15 05:17:48;;;;;;;10.85;7.13;;;14.80;99.90;15.00;100409.00;;;;4976957;28;88015;-65
2021/09/15 05:20:17;;;;;;;9.20;6.07;;;14.90;99.90;15.10;100414.00;;;;4977363;28;88888;-65
2021/09/15 05:22:52;;;;;;;9.02;6.60;;;15.00;99.90;15.20;100416.00;;;;4976984;28;87482;-65
2021/09/15 05:25:20;;;;;;;8.65;6.57;;;15.10;99.90;15.20;100425.00;;;;4977295;28;87555;-65
2021/09/15 05:27:46;;;;;;;9.18;6.20;;;15.10;99.90;15.30;100416.00;;;;4958715;28;87919;-66
2021/09/15 05:30:13;;;;;;;7.50;5.85;;;15.20;99.90;15.40;100416.00;;;;4976458;28;88964;-65
2021/09/15 05:32:40;;;;;;;9.25;6.28;;;15.30;99.90;15.40;100420.00;;;;4958668;28;89233;-65
2021/09/15 05:35:09;;;;;;;9.48;6.35;;;15.30;99.90;15.50;100412.00;;;;4958847;28;87915;-65
2021/09/15 05:37:35;;;;;;;7.72;6.40;;;15.40;99.90;15.60;100415.00;;;;4976540;28;88083;-65
2021/09/15 05:40:02;;;;;;;8.43;6.90;;;15.50;99.90;15.70;100408.00;;;;4977254;28;88102;-66
2021/09/15 05:42:28;;;;;;;7.60;5.97;;;15.60;99.90;15.90;100421.00;;;;4976372;28;97135;-66
2021/09/15 05:44:54;;;;;;;9.07;5.68;;;15.70;99.90;16.00;100411.00;;;;4975785;28;110425;-65
2021/09/15 05:47:20;;;;;;;8.73;5.82;;;15.80;99.90;16.10;100409.00;;;;4977201;28;86921;-66
2021/09/15 05:49:46;;;;;;;7.82;5.22;;;16.00;99.90;16.30;100415.00;;;;4974759;28;117575;-65
2021/09/15 05:52:11;;;;;;;8.40;5.90;;;16.10;99.90;16.40;100416.00;;;;4974209;28;118321;-65
2021/09/15 05:54:37;;;;;;;7.97;5.90;;;16.20;99.90;16.50;100425.00;;;;4960103;28;111702;-65
2021/09/15 05:57:03;;;;;;;9.55;5.93;;;16.30;99.90;16.50;100419.00;;;;4975850;28;109917;-66
2021/09/15 05:59:29;;;;;;;10.20;6.35;;;16.50;99.90;16.60;100425.00;;;;4976323;28;87895;-65
2021/09/15 06:01:54;;;;;;;7.65;5.78;;;16.40;99.90;16.60;100414.00;;;;4975698;28;118218;-65
2021/09/15 06:04:20;;;;;;;7.82;5.95;;;16.40;99.90;16.60;100408.00;;;;4975417;28;106742;-64
2021/09/15 06:06:46;;;;;;;8.07;6.00;;;16.50;99.90;16.60;100418.00;;;;4975867;28;107912;-64
2021/09/15 06:09:11;;;;;;;10.88;6.53;;;16.40;99.90;16.60;100416.00;;;;4974518;28;118903;-64
2021/09/15 06:11:37;;;;;;;6.82;5.68;;;16.40;99.90;16.60;100409.00;;;;4975613;28;117561;-66
2021/09/15 06:14:03;;;;;;;8.90;4.88;;;16.40;99.90;16.60;100413.00;;;;4974420;28;111310;-65
2021/09/15 06:16:28;;;;;;;8.93;5.65;;;16.40;99.90;16.60;100408.00;;;;4975323;28;109340;-66
2021/09/15 06:18:54;;;;;;;8.30;6.07;;;16.50;99.90;16.60;100408.00;;;;4979941;28;117807;-65
2021/09/15 06:21:20;;;;;;;7.60;5.22;;;16.50;99.90;16.60;100409.00;;;;4975410;28;117643;-65
2021/09/15 06:23:46;;;;;;;6.50;5.35;;;16.50;99.90;16.70;100412.00;;;;4975076;28;105941;-64
2021/09/15 06:26:12;;;;;;;7.43;5.70;;;16.50;99.90;16.70;100403.00;;;;4976366;28;88007;-66
2021/09/15 06:28:38;;;;;;;7.22;5.65;;;16.60;99.90;16.80;100398.00;;;;4975902;28;89241;-66
2021/09/15 06:31:05;;;;;;;8.68;5.85;;;16.60;99.90;16.90;100401.00;;;;4975514;28;87596;-66
2021/09/15 06:33:32;;;;;;;6.85;5.13;;;16.70;99.90;17.00;100406.00;;;;4940951;28;87757;-66
2021/09/15 06:35:58;;;;;;;6.78;5.40;;;16.80;99.90;17.20;100404.00;;;;4976180;28;87258;-65
2021/09/15 06:38:25;;;;;;;9.15;5.82;;;17.00;99.90;17.50;100403.00;;;;4975474;28;102739;-66
2021/09/15 06:40:50;;;;;;;7.45;4.90;;;17.20;99.90;17.80;100401.00;;;;4975703;28;96784;-65
2021/09/15 06:43:16;;;;;;;7.03;4.82;;;17.50;99.90;18.20;100398.00;;;;4974469;28;110371;-65
2021/09/15 06:45:42;;;;;;;5.25;4.60;;;17.80;99.90;18.50;100393.00;;;;4975782;28;89275;-65
2021/09/15 06:48:08;;;;;;;5.90;4.53;;;18.20;99.90;18.80;100403.00;;;;4975607;28;87917;-65
2021/09/15 06:50:33;;;;;;;5.35;4.50;;;18.50;99.90;19.00;100395.00;;;;4974931;28;115658;-67
2021/09/15 06:52:59;;;;;;;5.25;4.32;;;18.70;99.90;19.20;100400.00;;;;4960474;28;111517;-67
2021/09/15 06:55:25;;;;;;;5.75;4.53;;;18.90;99.90;19.40;100390.00;;;;4955123;28;93427;-66
2021/09/15 06:57:51;;;;;;;5.00;3.63;;;19.10;99.90;19.60;100387.00;;;;4975126;28;88794;-66
2021/09/15 07:00:20;;;;;;;8.27;4.38;;;19.30;99.90;19.70;100390.00;;;;4975442;28;93867;-66
2021/09/15 07:02:47;;;;;;;4.43;4.03;;;19.50;99.90;19.90;100392.00;;;;4975721;28;87792;-66
2021/09/15 07:05:13;;;;;;;6.10;4.03;;;19.60;99.90;20.10;100396.00;;;;4957379;28;87588;-67
2021/09/15 07:07:39;;;;;;;7.03;4.50;;;19.80;99.90;20.30;100396.00;;;;4973333;28;116607;-66
2021/09/15 07:10:07;;;;;;;4.18;3.47;;;20.00;99.90;20.50;100394.00;;;;4975256;28;88766;-67
2021/09/15 07:12:34;;;;;;;5.35;3.63;;;20.20;99.90;20.70;100399.00;;;;4956716;28;87806;-66
2021/09/15 07:15:00;;;;;;;5.47;3.90;;;20.50;99.90;21.00;100393.00;;;;4975533;28;87634;-67
2021/09/15 07:17:25;;;;;;;4.88;3.53;;;20.70;99.90;21.20;100393.00;;;;4973476;28;89222;-66
2021/09/15 07:19:51;;;;;;;4.78;3.50;;;20.90;99.90;21.50;100389.00;;;;4954829;28;117191;-66
2021/09/15 07:22:17;;;;;;;4.97;3.10;;;21.90;99.90;21.80;100396.00;;;;4954875;28;110367;-66
2021/09/15 07:24:42;;;;;;;5.93;3.85;;;21.40;99.90;22.00;100408.00;;;;4977678;28;107381;-66
2021/09/15 07:27:08;;;;;;;5.63;3.65;;;21.70;99.90;22.20;100401.00;;;;4983370;28;88115;-66
2021/09/15 07:29:34;;;;;;;5.43;3.80;;;21.80;99.90;22.40;100398.00;;;;4978353;28;116449;-67
2021/09/15 07:32:00;;;;;;;4.38;3.35;;;22.10;99.90;22.60;100407.00;;;;4977541;28;104036;-67
2021/09/15 07:34:25;;;;;;;3.67;3.03;;;22.30;99.90;22.80;100405.00;;;;4959943;28;88053;-66
2021/09/15 07:36:51;;;;;;;5.22;3.83;;;22.50;99.90;22.90;100403.00;;;;4976607;28;118469;-67
2021/09/15 07:39:17;;;;;;;6.13;3.92;;;22.60;99.90;23.20;100407.00;;;;4978003;28;88384;-66
2021/09/15 07:41:43;;;;;;;5.28;2.97;;;22.80;99.90;23.40;100400.00;;;;4977811;28;102708;-67
2021/09/15 07:44:08;;;;;;;3.22;2.92;;;23.00;99.90;23.70;100396.00;;;;4977933;28;108797;-67
2021/09/15 07:46:34;;;;;;;4.55;3.55;;;23.30;99.90;24.00;100406.00;;;;4977191;28;116246;-66
2021/09/15 07:49:00;;;;;;;3.67;3.05;;;23.50;99.90;24.20;100407.00;;;;4977756;28;116512;-66
2021/09/15 07:51:26;;;;;;;3.50;3.05;;;23.90;99.90;24.50;100405.00;;;;4979052;28;87351;-67
2021/09/15 07:53:52;;;;;;;3.13;2.78;;;24.10;99.90;24.70;100402.00;;;;4976645;28;108128;-67
2021/09/15 07:56:19;;;;;;;3.20;2.90;;;24.30;99.90;24.90;100405.00;;;;4978208;28;88941;-67
2021/09/15 07:58:45;;;;;;;4.10;2.55;;;24.40;99.90;25.20;100390.00;;;;4978010;28;89042;-68
2021/09/15 08:01:11;;;;;;;5.32;3.70;;;24.80;99.40;25.40;100405.00;;;;4978519;28;87837;-68
2021/09/15 08:03:36;;;;;;;3.95;2.63;;;25.00;99.30;25.70;100393.00;;;;4977936;28;87551;-68
2021/09/15 08:06:04;;;;;;;3.70;2.72;;;25.20;98.80;26.00;100403.00;;;;4977680;28;113908;-68
2021/09/15 08:08:33;;;;;;;4.05;2.25;;;25.50;96.50;26.20;100397.00;;;;4977718;28;88342;-68
2021/09/15 08:11:00;;;;;;;2.25;2.05;;;25.80;94.00;26.40;100393.00;;;;4978387;28;87756;-68
2021/09/15 08:13:26;;;;;;;3.13;2.08;;;26.00;92.00;26.60;100398.00;;;;4978273;28;87018;-68
2021/09/15 08:15:52;;;;;;;3.78;2.30;;;26.10;91.40;26.70;100402.00;;;;4977164;28;117484;-68
2021/09/15 08:18:18;;;;;;;2.10;1.90;;;26.30;90.00;26.80;100402.00;;;;4977677;28;88649;-68
2021/09/15 08:20:47;;;;;;;3.05;2.17;;;26.40;89.70;26.90;100406.00;;;;4977791;28;88962;-68
2021/09/15 08:23:15;;;;;;;2.00;1.58;;;26.50;88.20;27.00;100402.00;;;;4975544;28;87726;-68
2021/09/15 08:25:42;;;;;;;1.70;1.52;;;26.60;87.00;27.10;100400.00;;;;4978012;28;87867;-69
2021/09/15 08:28:09;;;;;;;1.73;1.63;;;26.70;85.40;27.10;100400.00;;;;4958778;28;87792;-68
2021/09/15 08:30:35;;;;;;;3.63;1.25;;;26.70;80.90;27.00;100403.00;;;;4977991;28;87651;-69
2021/09/15 08:33:01;;;;;;;2.63;2.25;;;26.70;78.90;26.80;100399.00;;;;4976962;28;94862;-68
2021/09/15 08:35:26;;;;;;;3.10;2.22;;;26.50;78.00;26.70;100400.00;;;;4976911;28;116489;-68
2021/09/15 08:37:53;;;;;;;1.60;1.50;;;26.40;76.80;26.50;100391.00;;;;4976173;28;118143;-68
2021/09/15 08:40:18;;;;;;;7.43;1.80;;;26.20;76.80;26.30;100403.00;;;;4976905;28;105173;-67
2021/09/15 08:42:44;;;;;;;2.00;1.88;;;26.10;75.80;26.10;100407.00;;;;4976400;28;106855;-69
2021/09/15 08:45:14;;;;;;;3.55;2.35;;;25.90;76.80;25.90;100408.00;;;;4976302;28;118042;-67
2021/09/15 08:47:46;;;;;;;4.40;1.85;;;25.70;76.60;25.80;100405.00;;;;4975340;28;117893;-68
2021/09/15 08:50:14;;;;;;;4.70;2.83;;;25.60;77.70;25.70;100410.00;;;;4977244;28;87639;-69
2021/09/15 08:52:40;;;;;;;1.52;1.38;;;25.40;79.40;25.70;100411.00;;;;4977623;28;87688;-68
2021/09/15 08:55:08;;;;;;;3.42;2.60;;;25.40;80.10;25.70;100411.00;;;;4977070;28;89251;-69
2021/09/15 08:57:34;;;;;;;1.90;1.77;;;25.40;81.30;25.80;100412.00;;;;4977357;28;88078;-68
2021/09/15 09:00:00;;;;;;;2.10;1.90;;;25.40;82.50;26.00;100412.00;;;;4977525;28;88345;-68
2021/09/15 09:02:38;;;;;;;2.70;1.60;;;25.50;83.00;26.10;100421.00;;;;4977664;28;87338;-69
2021/09/15 09:05:05;;;;;;;3.40;2.13;;;25.70;82.80;26.30;100412.00;;;;4977151;28;88184;-68
2021/09/15 09:07:33;;;;;;;5.70;2.38;;;25.80;80.00;26.40;100416.00;;;;4976987;28;88451;-68
2021/09/15 09:10:09;;;;;;;2.38;1.85;;;25.90;79.50;26.40;100411.00;;;;4976847;28;88593;-68
2021/09/15 09:12:38;;;;;;;2.35;1.70;;;26.00;77.80;26.40;100412.00;;;;4976585;28;87731;-68
2021/09/15 09:15:26;;;;;;;1.98;1.63;;;26.00;75.50;26.30;100400.00;;;;4976574;28;91124;-67
2021/09/15 09:17:53;;;;;;;2.97;1.70;;;26.00;74.90;26.30;100402.00;;;;4958376;28;87648;-67
2021/09/15 09:20:31;;;;;;;3.10;1.75;;;25.90;74.90;26.30;100402.00;;;;4958225;28;90383;-67
2021/09/15 09:23:18;;;;;;;2.28;2.08;;;25.90;74.00;26.30;100399.00;;;;4957944;28;87646;-68
2021/09/15 09:25:55;;;;;;;4.00;2.05;;;26.00;72.80;26.50;100388.00;;;;4957868;28;90186;-67
2021/09/15 09:28:30;;;;;;;2.83;1.40;;;26.10;71.10;26.60;100395.00;;;;4975901;28;88014;-68
2021/09/15 09:30:59;;;;;;;1.80;1.65;;;26.20;70.60;26.70;100399.00;;;;4976770;28;87768;-67
2021/09/15 09:33:25;;;;;;;2.10;1.58;;;26.30;70.60;26.80;100395.00;;;;4976474;28;87605;-67
2021/09/15 09:35:58;;;;;;;1.33;1.20;;;26.50;71.50;26.90;100397.00;;;;4975978;28;89272;-67
2021/09/15 09:38:33;;;;;;;3.05;2.13;;;26.50;69.40;26.90;100398.00;;;;4975869;28;88067;-68
2021/09/15 09:41:04;;;;;;;2.42;1.52;;;26.50;68.80;27.00;100389.00;;;;4976285;28;87772;-68
2021/09/15 09:43:34;;;;;;;1.60;1.50;;;26.60;68.10;27.00;100389.00;;;;4976299;28;87644;-67
2021/09/15 09:46:01;;;;;;;2.55;1.63;;;26.60;68.00;27.10;100383.00;;;;4976561;28;87540;-68
2021/09/15 09:48:51;;;;;;;3.05;2.38;;;26.70;66.60;27.00;100381.00;;;;4974614;28;88725;-68
2021/09/15 09:51:35;;;;;;;2.53;1.80;;;26.70;66.50;26.90;100370.00;;;;4976950;28;87674;-67
2021/09/15 09:54:22;;;;;;;3.63;2.17;;;26.60;65.10;26.80;100371.00;;;;4976057;28;86920;-68
2021/09/15 09:56:51;;;;;;;2.20;1.88;;;26.50;65.30;26.70;100376.00;;;;4957659;28;87782;-69
2021/09/15 09:59:19;;;;;;;1.85;1.67;;;26.40;66.70;26.80;100369.00;;;;4975223;28;90453;-68
2021/09/15 10:01:49;;;;;;;1.88;1.63;;;26.40;66.50;26.90;100369.00;;;;4974425;28;88946;-68
2021/09/15 10:04:17;;;;;;;2.22;1.48;;;26.50;67.10;27.10;100373.00;;;;4966092;28;87716;-68
2021/09/15 10:06:44;;;;;;;2.63;1.67;;;26.50;66.20;27.20;100380.00;;;;4957611;28;87901;-68
2021/09/15 10:09:11;;;;;;;1.80;1.70;;;26.80;66.80;27.30;100376.00;;;;4958727;28;89497;-67
2021/09/15 10:11:39;;;;;;;2.08;1.73;;;26.90;66.70;27.40;100384.00;;;;4975907;28;88484;-68
2021/09/15 10:14:15;;;;;;;1.67;1.48;;;27.10;66.30;27.40;100372.00;;;;4956869;28;87584;-67
2021/09/15 10:16:51;;;;;;;2.03;1.42;;;27.00;66.60;27.50;100377.00;;;;4947909;28;89646;-68
2021/09/15 10:19:19;;;;;;;2.35;1.88;;;27.10;67.00;27.60;100372.00;;;;4975285;28;98405;-68
2021/09/15 10:22:02;;;;;;;5.38;1.75;;;27.20;66.80;27.70;100368.00;;;;4957324;28;87660;-66
2021/09/15 10:24:49;;;;;;;3.22;1.75;;;27.30;64.40;27.90;100363.00;;;;4975289;28;89091;-67
2021/09/15 10:27:17;;;;;;;2.67;1.90;;;27.40;64.30;28.00;100360.00;;;;4957435;28;88828;-67
2021/09/15 10:29:43;;;;;;;1.88;1.45;;;27.50;63.50;28.10;100367.00;;;;4975119;28;96847;-68
2021/09/15 10:32:10;;;;;;;2.42;1.50;;;27.50;63.50;28.20;100363.00;;;;4976201;28;88352;-68
2021/09/15 10:34:39;;;;;;;2.33;1.83;;;27.70;61.70;28.20;100362.00;;;;4954492;28;87358;-67
2021/09/15 10:37:26;;;;;;;1.80;1.20;;;27.80;61.50;28.00;100354.00;;;;4977265;28;87789;-67
2021/09/15 10:40:29;;;;;;;5.45;1.88;;;27.70;60.90;27.90;100356.00;;;;4976410;28;87888;-67
2021/09/15 10:42:55;;;;;;;2.25;1.55;;;27.60;61.50;27.80;100359.00;;;;4976079;28;87821;-67
2021/09/15 10:45:29;;;;;;;1.85;1.65;;;27.40;61.20;27.60;100355.00;;;;4975723;28;109324;-67
2021/09/15 10:48:00;;;;;;;1.73;1.30;;;27.30;61.50;27.40;100357.00;;;;4958732;28;88151;-67
2021/09/15 10:50:29;;;;;;;2.80;2.30;;;27.20;62.60;27.30;100365.00;;;;4982320;28;88736;-67